createdAt,value
2023-04-16T00:03:47.049Z,100111.25
2023-04-16T00:08:51.523Z,100121.78
2023-04-16T00:13:54.290Z,100115.97
2023-04-16T00:18:57.134Z,100125.25
2023-04-16T00:24:01.209Z,100123.44
2023-04-16T00:29:03.990Z,100126.38
2023-04-16T00:34:06.725Z,100122.97
2023-04-16T00:39:10.916Z,100123.97
2023-04-16T00:44:13.834Z,100121.38
2023-04-16T00:49:16.814Z,100123.63
2023-04-16T00:54:20.970Z,100127.56
2023-04-16T00:59:23.723Z,100131.03
2023-04-16T01:04:26.620Z,100132.53
2023-04-16T01:09:31.232Z,100154.56
2023-04-16T01:14:36.406Z,100158.00
2023-04-16T01:19:39.488Z,100163.25
2023-04-16T01:24:43.644Z,100160.69
2023-04-16T01:29:46.882Z,100161.47
2023-04-16T01:34:53.892Z,100167.22
2023-04-16T01:39:58.514Z,100176.13
2023-04-16T01:45:01.396Z,100177.34
2023-04-16T01:50:05.860Z,100178.06
2023-04-16T01:55:10.372Z,100177.94
2023-04-16T02:00:13.756Z,100180.72
2023-04-16T02:05:22.461Z,100178.03
2023-04-16T02:10:26.629Z,100172.16
2023-04-16T02:15:30.067Z,100171.81
2023-04-16T02:20:32.813Z,100179.03
2023-04-16T02:25:41.792Z,100181.22
2023-04-16T02:30:46.373Z,100185.13
2023-04-16T02:35:51.669Z,100191.47
2023-04-16T02:40:55.871Z,100191.34
2023-04-16T02:45:59.495Z,100194.88
2023-04-16T02:51:02.324Z,100196.94
2023-04-16T02:56:07.368Z,100199.53
2023-04-16T03:01:10.884Z,100200.38
2023-04-16T03:06:13.855Z,100204.38
2023-04-16T03:11:18.309Z,100207.31
2023-04-16T03:16:21.428Z,100211.59
2023-04-16T03:21:24.380Z,100216.34
2023-04-16T03:26:28.485Z,100213.88
2023-04-16T03:31:31.644Z,100212.44
2023-04-16T03:36:35.353Z,100220.47
2023-04-16T03:41:39.537Z,100222.78
2023-04-16T03:46:42.587Z,100218.47
2023-04-16T03:51:45.517Z,100230.41
2023-04-16T03:56:49.590Z,100232.16
2023-04-16T04:01:53.195Z,100240.28
2023-04-16T04:06:56.377Z,100235.78
2023-04-16T04:12:01.131Z,100244.06
2023-04-16T04:17:04.205Z,100255.78
2023-04-16T04:22:07.041Z,100264.66
2023-04-16T04:27:11.374Z,100264.91
2023-04-16T04:32:14.282Z,100267.59
2023-04-16T04:37:17.468Z,100277.47
2023-04-16T04:42:22.060Z,100270.28
2023-04-16T04:47:25.486Z,100277.47
2023-04-16T04:52:29.422Z,100281.97
2023-04-16T04:57:33.646Z,100289.06
2023-04-16T05:02:38.518Z,100291.84
2023-04-16T05:07:41.395Z,100302.69
2023-04-16T05:12:47.189Z,100297.31
2023-04-16T05:17:51.702Z,100303.78
2023-04-16T05:22:55.375Z,100306.44
2023-04-16T05:27:59.472Z,100310.00
2023-04-16T05:33:02.285Z,100321.69
2023-04-16T05:38:05.387Z,100323.41
2023-04-16T05:43:09.492Z,100329.63
2023-04-16T05:48:12.452Z,100329.72
2023-04-16T05:53:15.347Z,100333.38
2023-04-16T05:58:19.497Z,100337.78
2023-04-16T06:03:22.300Z,100338.03
2023-04-16T06:08:25.212Z,100343.38
2023-04-16T06:13:29.366Z,100355.81
2023-04-16T06:18:32.123Z,100353.25
2023-04-16T06:23:35.028Z,100359.47
2023-04-16T06:28:39.176Z,100369.34
2023-04-16T06:33:42.107Z,100368.38
2023-04-16T06:38:44.979Z,100370.19
2023-04-16T06:43:49.233Z,100383.38
2023-04-16T06:48:52.099Z,100377.03
2023-04-16T06:53:54.903Z,100382.38
2023-04-16T06:59:00.919Z,100386.78
2023-04-16T07:04:04.449Z,100390.09
2023-04-16T07:09:07.459Z,100388.31
2023-04-16T07:14:11.795Z,100398.31
2023-04-16T07:19:14.837Z,100403.31
2023-04-16T07:24:17.624Z,100401.72
2023-04-16T07:29:21.840Z,100410.13
2023-04-16T07:34:24.683Z,100415.09
2023-04-16T07:39:27.404Z,100431.25
2023-04-16T07:44:31.608Z,100430.25
2023-04-16T07:49:34.476Z,100437.97
2023-04-16T07:54:37.310Z,100434.25
2023-04-16T07:59:41.640Z,100438.50
2023-04-16T08:04:44.981Z,100452.44
2023-04-16T08:09:52.108Z,100448.88
2023-04-16T08:14:56.259Z,100457.44
2023-04-16T08:19:59.098Z,100461.72
2023-04-16T08:25:02.113Z,100464.81
2023-04-16T08:30:07.783Z,100478.28
2023-04-16T08:35:11.029Z,100479.91
2023-04-16T08:40:14.030Z,100479.44
2023-04-16T08:45:18.492Z,100486.59
2023-04-16T08:50:24.079Z,100485.78
2023-04-16T08:55:27.918Z,100487.38
2023-04-16T09:00:32.145Z,100482.97
2023-04-16T09:05:35.181Z,100480.06
2023-04-16T09:10:37.967Z,100494.97
2023-04-16T09:15:42.101Z,100501.31
2023-04-16T09:20:44.957Z,100507.06
2023-04-16T09:25:47.795Z,100506.69
2023-04-16T09:30:52.375Z,100515.59
2023-04-16T09:35:55.410Z,100518.28
2023-04-16T09:41:07.421Z,100518.91
2023-04-16T09:46:12.615Z,100525.88
2023-04-16T09:51:15.560Z,100521.84
2023-04-16T09:56:18.375Z,100520.47
2023-04-16T10:01:22.885Z,100531.16
2023-04-16T10:06:27.125Z,100529.78
2023-04-16T10:11:30.044Z,100540.91
2023-04-16T10:16:34.740Z,100547.50
2023-04-16T10:21:37.625Z,100554.22
2023-04-16T10:26:40.474Z,100557.16
2023-04-16T10:31:44.673Z,100559.38
2023-04-16T10:36:49.419Z,100563.03
2023-04-16T10:41:52.576Z,100561.94
2023-04-16T10:46:56.918Z,100568.66
2023-04-16T10:52:00.232Z,100563.25
2023-04-16T10:57:05.184Z,100565.22
2023-04-16T11:02:10.587Z,100570.13
2023-04-16T11:07:18.731Z,100572.69
2023-04-16T11:12:22.387Z,100569.38
2023-04-16T11:17:29.782Z,100570.72
2023-04-16T11:22:32.680Z,100574.25
2023-04-16T11:27:35.734Z,100579.38
2023-04-16T11:32:39.956Z,100577.28
2023-04-16T11:37:43.087Z,100585.34
2023-04-16T11:42:45.881Z,100587.78
2023-04-16T11:47:52.248Z,100592.16
2023-04-16T11:52:56.454Z,100588.47
2023-04-16T11:57:59.376Z,100604.59
2023-04-16T12:03:04.015Z,100602.38
2023-04-16T12:08:07.950Z,100603.25
2023-04-16T12:13:12.582Z,100613.47
2023-04-16T12:18:17.225Z,100606.94
2023-04-16T12:23:27.198Z,100608.09
2023-04-16T12:28:31.231Z,100609.59
2023-04-16T12:33:35.597Z,100620.16
2023-04-16T12:38:38.361Z,100622.06
2023-04-16T12:43:41.347Z,100624.78
2023-04-16T12:48:45.568Z,100612.97
2023-04-16T12:53:48.615Z,100613.75
2023-04-16T12:58:52.153Z,100619.50
2023-04-16T13:03:56.711Z,100623.91
2023-04-16T13:08:59.710Z,100624.88
2023-04-16T13:14:02.778Z,100616.81
2023-04-16T13:19:08.683Z,100624.25
2023-04-16T13:24:11.783Z,100632.28
2023-04-16T13:29:14.632Z,100635.44
2023-04-16T13:34:18.776Z,100632.41
2023-04-16T13:39:21.650Z,100633.38
2023-04-16T13:44:24.497Z,100632.53
2023-04-16T13:49:28.762Z,100632.03
2023-04-16T13:54:31.848Z,100639.97
2023-04-16T13:59:34.598Z,100640.94
2023-04-16T14:04:38.718Z,100648.66
2023-04-16T14:09:41.663Z,100651.34
2023-04-16T14:14:44.419Z,100641.91
2023-04-16T14:19:48.806Z,100650.38
2023-04-16T14:24:51.633Z,100643.75
2023-04-16T14:29:54.598Z,100655.28
2023-04-16T14:34:58.749Z,100660.28
2023-04-16T14:40:01.904Z,100657.47
2023-04-16T14:45:06.486Z,100657.19
2023-04-16T14:50:11.821Z,100663.81
2023-04-16T14:55:14.600Z,100658.44
2023-04-16T15:00:18.835Z,100663.69
2023-04-16T15:05:23.121Z,100661.63
2023-04-16T15:10:25.999Z,100662.84
2023-04-16T15:15:28.964Z,100665.53
2023-04-16T15:20:33.338Z,100665.28
2023-04-16T15:25:36.403Z,100675.06
2023-04-16T15:30:39.990Z,100678.63
2023-04-16T15:35:44.132Z,100684.38
2023-04-16T15:40:46.941Z,100688.66
2023-04-16T15:45:49.723Z,100690.22
2023-04-16T15:50:54.371Z,100693.78
2023-04-16T15:55:57.137Z,100691.81
2023-04-16T16:00:59.920Z,100696.59
2023-04-16T16:06:04.902Z,100696.00
2023-04-16T16:11:08.219Z,100694.38
2023-04-16T16:16:11.407Z,100698.06
2023-04-16T16:21:16.071Z,100701.59
2023-04-16T16:26:20.527Z,100699.28
2023-04-16T16:31:23.371Z,100709.06
2023-04-16T16:36:27.939Z,100712.88
2023-04-16T16:41:31.201Z,100712.88
2023-04-16T16:46:34.123Z,100715.44
2023-04-16T16:51:38.605Z,100718.88
2023-04-16T16:56:41.411Z,100723.41
2023-04-16T17:01:44.339Z,100715.31
2023-04-16T17:06:48.720Z,100723.66
2023-04-16T17:11:51.559Z,100725.63
2023-04-16T17:16:54.547Z,100729.16
2023-04-16T17:21:59.057Z,100732.94
2023-04-16T17:27:02.181Z,100740.91
2023-04-16T17:32:05.625Z,100736.13
2023-04-16T17:37:09.786Z,100749.00
2023-04-16T17:42:12.596Z,100750.69
2023-04-16T17:47:15.408Z,100751.03
2023-04-16T17:52:21.367Z,100753.00
2023-04-16T17:57:24.388Z,100761.81
2023-04-16T18:02:27.366Z,100765.34
2023-04-16T18:07:32.454Z,100770.53
2023-04-16T18:12:35.542Z,100780.41
2023-04-16T18:17:38.733Z,100784.84
2023-04-16T18:22:43.067Z,100794.13
2023-04-16T18:27:46.156Z,100797.53
2023-04-16T18:33:09.904Z,100798.63
2023-04-16T18:38:13.552Z,100806.59
2023-04-16T18:43:16.624Z,100812.09
2023-04-16T18:48:19.721Z,100815.91
2023-04-16T18:53:24.022Z,100829.09
2023-04-16T18:58:27.074Z,100821.03
2023-04-16T19:03:31.141Z,100821.88
2023-04-16T19:08:35.442Z,100832.66
2023-04-16T19:13:39.291Z,100828.38
2023-04-16T19:18:42.161Z,100833.75
2023-04-16T19:23:46.558Z,100839.16
2023-04-16T19:28:49.537Z,100836.44
2023-04-16T19:33:52.615Z,100831.06
2023-04-16T19:38:56.879Z,100835.47
2023-04-16T19:43:59.707Z,100842.44
2023-04-16T19:49:02.737Z,100835.59
2023-04-16T19:54:07.389Z,100844.91
2023-04-16T19:59:13.897Z,100848.81
2023-04-16T20:04:16.839Z,100848.34
2023-04-16T20:09:21.265Z,100851.38
2023-04-16T20:14:24.042Z,100852.22
2023-04-16T20:19:33.572Z,100855.91
2023-04-16T20:24:38.478Z,100840.25
2023-04-16T20:29:41.488Z,100856.66
2023-04-16T20:34:44.287Z,100854.06
2023-04-16T20:39:50.210Z,100842.22
2023-04-16T20:44:56.200Z,100857.53
2023-04-16T20:50:01.686Z,100850.31
2023-04-16T20:55:08.199Z,100858.47
2023-04-16T21:00:12.414Z,100856.88
2023-04-16T21:05:16.439Z,100858.47
2023-04-16T21:10:21.418Z,100854.19
2023-04-16T21:15:24.257Z,100858.72
2023-04-16T21:20:28.794Z,100868.28
2023-04-16T21:25:34.541Z,100860.94
2023-04-16T21:30:38.236Z,100862.13
2023-04-16T21:35:41.338Z,100863.75
2023-04-16T21:40:46.127Z,100865.59
2023-04-16T21:45:48.875Z,100861.69
2023-04-16T21:50:56.029Z,100861.16
2023-04-16T21:56:00.269Z,100856.53
2023-04-16T22:01:03.183Z,100862.91
2023-04-16T22:06:06.233Z,100869.03
2023-04-16T22:11:10.389Z,100869.91
2023-04-16T22:16:13.389Z,100867.19
2023-04-16T22:21:16.495Z,100865.09
2023-04-16T22:26:20.887Z,100863.50
2023-04-16T22:31:23.688Z,100855.28
2023-04-16T22:36:26.805Z,100874.75
2023-04-16T22:41:31.100Z,100874.25
2023-04-16T22:46:33.967Z,100871.69
2023-04-16T22:51:38.109Z,100873.75
2023-04-16T22:56:42.255Z,100884.16
2023-04-16T23:01:45.278Z,100878.25
2023-04-16T23:06:48.031Z,100877.22
2023-04-16T23:11:52.153Z,100879.88
2023-04-16T23:16:54.887Z,100876.66
2023-04-16T23:21:57.620Z,100885.31
2023-04-16T23:27:02.892Z,100879.28
2023-04-16T23:32:05.940Z,100884.25
2023-04-16T23:37:08.951Z,100882.38
2023-04-16T23:42:13.231Z,100880.16
2023-04-16T23:47:16.194Z,100879.84
2023-04-16T23:52:18.962Z,100882.78
2023-04-16T23:57:23.349Z,100883.34
